Time;durP1;ratioP1;P1;durP2;ratioP2;P2;SDS_P1;SDS_P2;PMS_P1;PMS_P2;Temp;Humidity;BMP_temperature;BMP_pressure;BME280_temperature;BME280_humidity;BME280_pressure;Samples;Min_cycle;Max_cycle;Signal;HPM_P1;HPM_P2
2021/06/06 00:01:25;;;;;;;23.10;14.90;;;15.80;99.90;;;14.99;96.46;98116.84;5071701;28;20036;-69
2021/06/06 00:03:56;;;;;;;22.08;15.85;;;15.80;99.90;;;14.98;95.77;98109.06;5068041;28;20504;-68
2021/06/06 00:06:37;;;;;;;27.75;17.52;;;15.70;99.90;;;14.94;95.64;98111.00;5067338;28;20552;-69
2021/06/06 00:09:16;;;;;;;31.35;19.25;;;15.60;99.90;;;14.91;95.84;98105.91;5071171;28;20079;-69
2021/06/06 00:12:07;;;;;;;35.35;21.05;;;15.60;99.90;;;14.87;96.46;98111.38;5054390;28;20045;-68
2021/06/06 00:14:37;;;;;;;34.78;20.13;;;15.50;99.90;;;14.89;96.14;98110.38;5070011;28;20044;-69
2021/06/06 00:17:10;;;;;;;36.13;20.83;;;15.50;99.90;;;14.99;96.00;98108.16;5063533;28;20045;-69
2021/06/06 00:19:38;;;;;;;38.55;23.15;;;15.60;99.90;;;14.94;96.23;98110.13;5072100;28;20488;-69
2021/06/06 00:22:07;;;;;;;50.47;26.55;;;15.60;99.90;;;14.91;96.20;98105.91;5070017;28;20062;-69
2021/06/06 00:24:36;;;;;;;39.40;20.52;;;15.60;99.90;;;14.90;96.17;98111.25;5052319;28;20118;-69
2021/06/06 00:27:05;;;;;;;35.70;21.58;;;15.60;99.90;;;14.94;96.24;98110.13;5069061;28;20392;-69
2021/06/06 00:29:33;;;;;;;44.90;25.02;;;15.60;99.90;;;14.90;96.49;98109.47;5069305;28;20041;-68
2021/06/06 00:32:00;;;;;;;37.05;21.50;;;15.60;99.90;;;15.04;95.74;98103.53;5070187;28;20389;-69
2021/06/06 00:34:27;;;;;;;43.58;24.30;;;15.60;99.90;;;15.00;95.78;98104.59;5068074;28;20044;-69
2021/06/06 00:36:54;;;;;;;32.17;19.30;;;15.60;99.90;;;15.03;95.48;98114.91;5070159;28;20065;-69
2021/06/06 00:39:21;;;;;;;42.95;24.88;;;15.70;99.90;;;14.94;95.54;98102.28;5069233;28;20037;-69
2021/06/06 00:41:51;;;;;;;40.35;23.05;;;15.70;99.90;;;14.95;95.44;98109.22;5070984;28;20110;-69
2021/06/06 00:44:19;;;;;;;40.95;22.92;;;15.70;99.90;;;15.08;95.04;98099.00;5069236;28;20464;-68
2021/06/06 00:46:46;;;;;;;44.55;26.30;;;15.70;99.90;;;15.10;94.63;98108.44;5069698;28;20098;-69
2021/06/06 00:49:14;;;;;;;53.35;28.20;;;15.70;99.90;;;15.02;94.67;98108.81;5051010;28;20044;-72
2021/06/06 00:51:49;;;;;;;42.88;24.63;;;15.70;99.90;;;15.05;94.68;98105.19;5070764;28;20105;-69
2021/06/06 00:54:34;;;;;;;45.03;28.00;;;15.70;99.90;;;15.00;94.25;98108.06;5052665;28;20045;-70
2021/06/06 00:57:27;;;;;;;46.17;26.98;;;15.70;99.90;;;15.07;94.13;98113.81;5068143;28;20090;-69
2021/06/06 01:00:06;;;;;;;61.55;31.20;;;15.80;99.90;;;15.01;94.22;98115.00;5051851;28;20113;-68
2021/06/06 01:02:54;;;;;;;46.42;26.58;;;15.70;99.90;;;14.97;94.50;98110.84;5069572;28;20101;-69
2021/06/06 01:05:36;;;;;;;57.10;29.45;;;15.70;99.90;;;14.90;95.13;98114.69;5069596;28;20044;-68
2021/06/06 01:08:08;;;;;;;36.67;23.02;;;15.70;99.90;;;14.95;94.57;98112.69;5069182;28;20040;-69
2021/06/06 01:10:35;;;;;;;43.05;24.13;;;15.70;99.90;;;15.05;94.28;98107.81;5068494;28;20115;-69
2021/06/06 01:13:21;;;;;;;43.30;24.80;;;15.70;99.90;;;15.04;94.22;98111.38;5070647;28;20545;-69
2021/06/06 01:15:57;;;;;;;43.08;27.10;;;15.80;99.90;;;14.98;93.49;98112.50;5068021;28;20037;-69
2021/06/06 01:18:50;;;;;;;46.95;25.17;;;15.70;99.90;;;15.00;93.74;98118.50;5066964;28;20048;-69
2021/06/06 01:22:22;;;;;;;51.28;26.90;;;15.50;99.90;;;14.99;93.49;98106.38;5062491;28;20047;-69
2021/06/06 01:25:14;;;;;;;49.42;26.98;;;15.50;99.90;;;15.04;93.24;98101.75;5067232;28;20581;-69
2021/06/06 01:28:11;;;;;;;44.28;24.95;;;15.60;99.90;;;15.06;93.19;98102.50;5062869;28;20322;-69
2021/06/06 01:30:55;;;;;;;42.35;25.92;;;15.60;99.90;;;15.06;93.71;98104.28;5067948;28;20053;-69
2021/06/06 01:33:38;;;;;;;50.10;28.08;;;15.70;99.90;;;14.93;94.40;98105.84;5051489;28;20516;-69
2021/06/06 01:36:30;;;;;;;44.03;26.95;;;15.70;99.90;;;15.03;93.72;98097.47;5066584;28;20064;-69
2021/06/06 01:39:05;;;;;;;52.92;29.38;;;15.70;99.90;;;14.97;94.01;98100.38;5051761;28;20143;-69
2021/06/06 01:41:38;;;;;;;46.45;26.95;;;15.70;99.90;;;14.89;93.67;98099.09;5065719;28;20064;-69
2021/06/06 01:44:10;;;;;;;59.72;32.20;;;15.80;99.90;;;14.94;93.40;98102.28;5048756;28;20056;-69
2021/06/06 01:46:53;;;;;;;48.70;29.08;;;15.70;99.90;;;14.97;93.57;98099.53;5077033;28;20033;-69
2021/06/06 01:49:23;;;;;;;60.45;33.60;;;15.80;99.90;;;14.92;93.55;98099.78;5063167;28;20057;-69
2021/06/06 01:52:00;;;;;;;50.72;29.67;;;15.70;99.90;;;14.89;94.43;98105.16;5046009;28;20253;-69
2021/06/06 01:54:49;;;;;;;69.28;37.40;;;15.70;99.90;;;14.93;94.46;98101.47;5065506;28;20064;-69
2021/06/06 01:57:28;;;;;;;57.65;34.90;;;15.70;99.90;;;14.89;93.72;98099.91;5064981;28;20047;-68
2021/06/06 01:59:57;;;;;;;78.68;41.85;;;15.70;99.90;;;14.89;94.05;98101.69;5035060;28;20090;-69
2021/06/06 02:02:24;;;;;;;65.60;38.65;;;15.60;99.90;;;14.87;94.13;98101.81;5064702;28;20117;-70
2021/06/06 02:04:53;;;;;;;68.80;40.50;;;15.60;99.90;;;14.80;94.29;98101.28;5059805;28;20041;-69
2021/06/06 02:07:31;;;;;;;82.72;42.67;;;15.60;99.90;;;14.72;94.70;98105.19;5066193;28;20586;-69
2021/06/06 02:10:09;;;;;;;62.97;37.13;;;15.50;99.90;;;14.76;94.96;98098.88;5065726;28;20411;-69
2021/06/06 02:12:40;;;;;;;60.72;36.63;;;15.50;99.90;;;14.76;94.90;98096.28;5067545;28;20444;-69
2021/06/06 02:15:27;;;;;;;52.90;32.63;;;15.50;99.90;;;14.89;94.38;98104.31;5067412;28;20044;-69
2021/06/06 02:17:58;;;;;;;72.47;39.42;;;15.70;99.90;;;14.75;93.96;98098.03;5059027;28;20561;-69
2021/06/06 02:20:33;;;;;;;82.25;42.45;;;15.60;99.90;;;14.75;94.74;98103.25;5067590;28;20059;-69
2021/06/06 02:23:00;;;;;;;60.13;35.38;;;15.50;99.90;;;14.76;94.83;98102.34;5067157;28;20466;-69
2021/06/06 02:25:28;;;;;;;64.25;37.72;;;15.50;99.90;;;14.72;94.68;98105.19;5044664;28;20521;-69
2021/06/06 02:28:17;;;;;;;62.42;37.97;;;15.50;99.90;;;14.75;94.95;98102.41;5065620;28;20131;-69
2021/06/06 02:31:08;;;;;;;70.05;38.70;;;15.60;99.90;;;14.77;94.71;98098.78;5068407;28;20102;-69
2021/06/06 02:33:48;;;;;;;62.72;37.28;;;15.60;99.90;;;14.75;94.97;98099.78;5061000;28;20037;-68
2021/06/06 02:36:39;;;;;;;57.45;34.80;;;15.50;99.90;;;14.76;94.94;98089.28;5061899;28;20515;-69
2021/06/06 02:39:37;;;;;;;73.13;38.33;;;15.50;99.90;;;14.74;95.29;98090.28;5067603;28;20121;-69
2021/06/06 02:42:12;;;;;;;61.00;35.13;;;15.50;99.90;;;14.73;95.15;98089.41;5066124;28;20090;-69
2021/06/06 02:44:58;;;;;;;63.25;36.72;;;15.50;99.90;;;14.68;95.64;98085.34;5059980;28;20041;-69
2021/06/06 02:47:45;;;;;;;64.03;35.80;;;15.50;99.90;;;14.74;95.32;98078.06;5062173;28;20048;-69
2021/06/06 02:50:38;;;;;;;57.97;36.35;;;15.50;99.90;;;14.63;95.95;98086.44;5060144;28;20416;-69
2021/06/06 02:53:33;;;;;;;55.55;34.40;;;15.50;99.90;;;14.67;95.59;98087.13;5056501;28;20041;-69
2021/06/06 02:56:23;;;;;;;88.03;44.17;;;15.50;99.90;;;14.59;96.12;98087.50;5061911;28;20264;-69
2021/06/06 02:59:27;;;;;;;72.28;36.67;;;15.40;99.90;;;14.54;96.56;98081.69;5065619;28;20040;-69
2021/06/06 03:02:14;;;;;;;98.90;47.75;;;15.40;99.90;;;14.46;97.32;98082.94;5064881;28;20040;-69
2021/06/06 03:04:48;;;;;;;67.38;38.00;;;15.30;99.90;;;14.49;97.01;98075.81;5059800;28;20381;-69
2021/06/06 03:07:30;;;;;;;76.63;42.53;;;15.40;99.90;;;14.45;96.65;98084.72;5065671;28;20489;-69
2021/06/06 03:09:59;;;;;;;71.63;42.30;;;15.30;99.90;;;14.48;96.83;98070.66;5030506;28;20071;-69
2021/06/06 03:12:49;;;;;;;89.50;47.97;;;15.30;99.90;;;14.47;97.22;98076.81;5065829;28;20093;-69
2021/06/06 03:15:41;;;;;;;107.88;50.05;;;15.20;99.90;;;14.40;97.60;98073.66;5059965;28;20052;-69
2021/06/06 03:18:15;;;;;;;93.63;47.92;;;15.20;99.90;;;14.38;97.59;98070.28;5044698;28;20484;-68
2021/06/06 03:20:47;;;;;;;84.38;42.92;;;15.20;99.90;;;14.45;97.23;98069.03;5048542;28;20090;-69
2021/06/06 03:23:36;;;;;;;95.88;47.58;;;15.20;99.90;;;14.46;97.13;98065.53;5068413;28;20041;-69
2021/06/06 03:26:10;;;;;;;77.25;42.85;;;15.20;99.90;;;14.48;97.07;98068.88;5054449;28;20036;-69
2021/06/06 03:28:41;;;;;;;68.30;40.08;;;15.30;99.90;;;14.53;96.47;98069.53;5070669;28;20063;-69
2021/06/06 03:31:24;;;;;;;69.97;41.45;;;15.30;99.90;;;14.46;96.65;98073.38;5068056;28;20058;-68
2021/06/06 03:34:02;;;;;;;90.40;45.15;;;15.30;99.90;;;14.54;96.56;98071.22;5052105;28;20049;-69
2021/06/06 03:36:37;;;;;;;73.80;41.38;;;15.30;99.90;;;14.48;96.41;98075.88;5054224;28;20033;-70
2021/06/06 03:39:09;;;;;;;73.65;39.38;;;15.30;99.90;;;14.54;96.29;98076.44;5086544;28;20086;-68
2021/06/06 03:41:37;;;;;;;74.80;38.63;;;15.30;99.90;;;14.60;95.76;98073.53;5068904;28;20041;-69
2021/06/06 03:44:05;;;;;;;94.88;46.45;;;15.30;99.90;;;14.48;96.44;98071.50;5070616;28;20105;-68
2021/06/06 03:46:33;;;;;;;79.93;45.28;;;15.30;99.90;;;14.49;96.48;98077.59;5067188;28;20105;-69
2021/06/06 03:49:01;;;;;;;108.80;50.92;;;15.30;99.90;;;14.40;97.18;98081.50;5070063;28;20044;-69
2021/06/06 03:51:29;;;;;;;105.93;53.28;;;15.30;99.90;;;14.32;96.77;98081.91;5051529;28;20044;-69
2021/06/06 03:53:57;;;;;;;84.72;48.72;;;15.20;99.90;;;14.35;96.83;98081.72;5056547;28;20516;-69
2021/06/06 03:56:24;;;;;;;114.90;55.78;;;15.20;99.90;;;14.27;97.53;98083.03;5068715;28;20094;-69
2021/06/06 03:58:52;;;;;;;119.68;55.22;;;15.00;99.90;;;14.27;97.86;98088.25;5070005;28;20095;-69
2021/06/06 04:01:20;;;;;;;98.65;50.50;;;15.00;99.90;;;14.30;97.45;98086.34;5044196;28;20181;-69
2021/06/06 04:03:48;;;;;;;93.75;50.83;;;15.10;99.90;;;14.30;97.28;98080.25;5070803;28;20086;-69
2021/06/06 04:06:14;;;;;;;96.43;49.22;;;15.00;99.90;;;14.36;96.99;98086.03;5067285;28;20527;-68
2021/06/06 04:08:41;;;;;;;108.20;53.58;;;15.10;99.90;;;14.44;96.46;98081.28;5068747;28;20052;-69
2021/06/06 04:11:09;;;;;;;89.95;47.58;;;15.20;99.90;;;14.39;96.73;98082.41;5069161;28;20055;-69
2021/06/06 04:13:36;;;;;;;119.20;59.13;;;15.20;99.90;;;14.33;96.97;98086.19;5068442;28;20408;-68
2021/06/06 04:16:05;;;;;;;90.95;51.25;;;15.20;99.90;;;14.30;96.86;98081.13;5068787;28;20048;-69
2021/06/06 04:18:33;;;;;;;104.68;52.80;;;15.20;99.90;;;14.38;96.62;98081.56;5070248;28;20516;-68
2021/06/06 04:21:04;;;;;;;105.85;52.30;;;15.20;99.90;;;14.43;96.11;98079.56;5067113;28;20476;-69
2021/06/06 04:23:31;;;;;;;104.47;56.35;;;15.20;99.90;;;14.32;96.24;98086.25;5063092;28;20052;-69
2021/06/06 04:26:00;;;;;;;109.53;55.42;;;15.10;99.90;;;14.27;96.07;98089.09;5065314;28;20041;-69
2021/06/06 04:28:27;;;;;;;115.22;56.83;;;15.10;99.90;;;14.21;96.48;98094.63;5034616;28;20525;-69
2021/06/06 04:31:17;;;;;;;105.93;54.60;;;15.10;99.90;;;14.21;96.36;98090.25;5067881;28;20045;-69
2021/06/06 04:33:47;;;;;;;100.25;52.97;;;15.10;99.90;;;14.25;95.98;98087.47;5070613;28;20132;-69
2021/06/06 04:36:14;;;;;;;96.82;53.53;;;15.10;99.90;;;14.17;95.92;98091.31;5068566;28;20081;-69
2021/06/06 04:38:42;;;;;;;89.32;47.88;;;15.10;99.90;;;14.23;95.76;98088.41;5068680;28;20036;-69
2021/06/06 04:41:14;;;;;;;103.28;52.70;;;15.00;99.90;;;14.22;95.57;98094.53;5068682;28;20040;-69
2021/06/06 04:43:42;;;;;;;97.10;53.00;;;15.00;99.90;;;14.25;95.73;98097.91;5066961;28;20325;-69
2021/06/06 04:46:10;;;;;;;104.88;54.72;;;15.00;99.90;;;14.22;95.91;98086.69;5067606;28;20052;-69
2021/06/06 04:48:54;;;;;;;97.07;52.20;;;15.00;99.90;;;14.30;95.61;98094.19;5064391;28;20150;-69
2021/06/06 04:51:23;;;;;;;77.72;46.40;;;15.00;99.90;;;14.23;95.67;98092.75;5052650;28;20049;-69
2021/06/06 04:53:53;;;;;;;105.55;53.10;;;15.20;99.90;;;14.25;95.43;98092.69;5062266;28;20403;-69
2021/06/06 04:56:24;;;;;;;107.72;53.47;;;15.10;99.90;;;14.31;95.26;98085.41;5040526;28;20049;-69
2021/06/06 04:58:54;;;;;;;82.57;46.83;;;15.10;99.90;;;14.28;95.78;98089.94;5062450;28;20052;-69
2021/06/06 05:01:21;;;;;;;91.38;49.03;;;15.10;99.90;;;14.20;95.92;98090.31;5065077;28;20040;-68
2021/06/06 05:03:48;;;;;;;100.10;51.70;;;15.10;99.90;;;14.17;95.85;98086.09;5070475;28;20070;-68
2021/06/06 05:06:16;;;;;;;85.10;46.90;;;15.10;99.90;;;14.24;95.55;98091.84;5067654;28;20102;-69
2021/06/06 05:08:43;;;;;;;103.35;50.97;;;15.10;99.90;;;14.22;95.71;98091.09;5062574;28;20472;-68
2021/06/06 05:11:10;;;;;;;74.35;42.95;;;15.10;99.90;;;14.33;95.23;98095.78;5065886;28;20562;-68
2021/06/06 05:13:38;;;;;;;89.68;45.80;;;15.20;99.90;;;14.33;95.32;98091.41;5050013;28;20444;-68
2021/06/06 05:16:06;;;;;;;78.85;45.25;;;15.20;99.90;;;14.20;96.16;98095.53;5054976;28;20496;-68
2021/06/06 05:18:34;;;;;;;84.35;47.25;;;15.20;99.90;;;14.30;95.52;98096.78;5067944;28;20040;-68
2021/06/06 05:21:03;;;;;;;87.32;47.67;;;15.20;99.90;;;14.25;95.04;98101.38;5064163;28;20040;-68
2021/06/06 05:23:32;;;;;;;75.20;43.45;;;15.20;99.90;;;14.31;95.21;98102.84;5067636;28;20044;-69
2021/06/06 05:26:00;;;;;;;97.15;49.10;;;15.20;99.90;;;14.35;95.21;98100.00;5057483;28;20052;-68
2021/06/06 05:28:31;;;;;;;81.18;43.60;;;15.20;99.90;;;14.49;94.89;98095.88;5069297;28;20044;-68
2021/06/06 05:30:59;;;;;;;86.25;46.67;;;15.30;99.90;;;14.36;94.27;98100.84;5065805;28;20036;-68
2021/06/06 05:33:26;;;;;;;84.10;45.40;;;15.30;99.90;;;14.42;94.11;98105.78;5048465;28;20066;-68
2021/06/06 05:35:54;;;;;;;101.32;51.60;;;15.30;99.90;;;14.37;94.35;98106.00;5060536;28;20492;-68
2021/06/06 05:38:25;;;;;;;92.88;47.63;;;15.30;99.90;;;14.44;94.07;98109.16;5060308;28;20413;-69
2021/06/06 05:40:53;;;;;;;92.47;48.47;;;15.40;99.90;;;14.47;93.85;98113.38;5055828;28;20116;-68
2021/06/06 05:43:21;;;;;;;100.40;51.28;;;15.30;99.90;;;14.33;94.41;98101.84;5066583;28;20081;-68
2021/06/06 05:45:49;;;;;;;96.15;50.38;;;15.30;99.90;;;14.35;93.14;98102.63;5064304;28;20029;-68
2021/06/06 05:48:17;;;;;;;87.97;45.97;;;15.30;99.90;;;14.41;93.50;98104.94;5058257;28;20124;-68
2021/06/06 05:50:47;;;;;;;88.35;49.05;;;15.30;99.90;;;14.43;92.53;98103.06;5068922;28;20040;-68
2021/06/06 05:53:15;;;;;;;79.57;46.05;;;15.30;99.90;;;14.46;92.79;98104.72;5064072;28;20044;-69
2021/06/06 05:55:44;;;;;;;81.68;47.17;;;15.30;99.90;;;14.48;92.69;98112.44;5062271;28;20101;-68
2021/06/06 05:58:13;;;;;;;81.38;45.75;;;15.40;99.90;;;14.42;92.76;98108.38;5067624;28;20036;-68
2021/06/06 06:00:44;;;;;;;72.88;41.97;;;15.40;99.90;;;14.47;92.56;98101.16;5068894;28;20554;-69
2021/06/06 06:03:12;;;;;;;69.13;39.97;;;15.40;99.90;;;14.51;91.40;98100.09;5068005;28;20084;-69
2021/06/06 06:05:40;;;;;;;68.13;41.35;;;15.40;99.90;;;14.56;91.73;98100.72;5065471;28;20036;-68
2021/06/06 06:08:19;;;;;;;97.72;50.05;;;15.50;99.90;;;14.51;92.22;98110.53;5062079;28;20033;-68
2021/06/06 06:10:49;;;;;;;60.97;39.70;;;15.40;99.90;;;14.63;92.21;98106.50;5062542;28;20045;-68
2021/06/06 06:13:19;;;;;;;73.40;42.60;;;15.60;99.90;;;14.73;91.64;98104.25;5065904;28;20032;-69
2021/06/06 06:15:46;;;;;;;74.72;43.50;;;15.70;99.90;;;14.64;91.29;98105.56;5065593;28;20044;-68
2021/06/06 06:18:15;;;;;;;75.22;44.28;;;15.70;99.90;;;14.68;92.33;98104.47;5054388;28;20044;-68
2021/06/06 06:20:45;;;;;;;69.95;42.35;;;15.80;99.90;;;14.75;91.86;98107.63;5064822;28;20048;-68
2021/06/06 06:23:12;;;;;;;67.38;40.38;;;15.80;99.90;;;14.85;91.36;98099.25;5061318;28;20049;-68
2021/06/06 06:25:39;;;;;;;72.82;42.08;;;15.90;99.90;;;14.73;90.98;98101.63;5067295;28;20057;-68
2021/06/06 06:28:07;;;;;;;71.53;43.15;;;15.80;99.90;;;14.61;90.84;98106.56;5067136;28;20037;-68
2021/06/06 06:30:36;;;;;;;89.53;46.90;;;15.70;99.90;;;14.46;91.76;98107.31;5048974;28;20124;-68
2021/06/06 06:33:06;;;;;;;86.22;45.42;;;15.50;99.90;;;14.39;92.11;98100.69;5065772;28;20492;-69
2021/06/06 06:35:34;;;;;;;69.70;41.13;;;15.40;99.90;;;14.40;91.81;98105.84;5068371;28;20048;-70
2021/06/06 06:38:05;;;;;;;72.65;40.58;;;15.40;99.90;;;14.36;91.05;98106.91;5063001;28;20507;-69
2021/06/06 06:40:34;;;;;;;76.53;40.28;;;15.30;99.90;;;14.36;91.42;98114.75;5055285;28;20044;-68
2021/06/06 06:43:03;;;;;;;63.85;37.20;;;15.20;99.90;;;14.38;91.36;98106.84;5041892;28;20052;-69
2021/06/06 06:45:35;;;;;;;68.97;39.10;;;15.30;99.90;;;14.44;91.14;98109.16;5065421;28;20048;-68
2021/06/06 06:48:22;;;;;;;61.95;32.80;;;15.30;99.90;;;14.58;91.07;98114.56;5066801;28;20086;-69
2021/06/06 06:50:50;;;;;;;67.35;37.45;;;15.50;99.90;;;14.61;89.97;98110.94;5070686;28;20048;-69
2021/06/06 06:53:19;;;;;;;53.03;34.08;;;15.50;99.90;;;14.83;89.62;98111.56;5071030;28;20059;-69
2021/06/06 06:55:46;;;;;;;58.88;34.83;;;15.70;99.90;;;14.78;89.57;98120.53;5070880;28;20052;-69
2021/06/06 06:58:15;;;;;;;67.88;36.88;;;15.90;99.90;;;14.82;89.32;98122.94;5036331;28;20102;-69
2021/06/06 07:00:46;;;;;;;58.80;34.65;;;15.90;99.90;;;14.68;89.62;98121.94;5085414;28;20454;-69
2021/06/06 07:03:19;;;;;;;56.20;34.83;;;15.90;99.90;;;14.59;89.34;98118.84;5068826;28;20048;-69
2021/06/06 07:05:46;;;;;;;52.83;33.30;;;15.90;99.90;;;14.76;89.11;98125.88;5070951;28;20051;-68
2021/06/06 07:08:18;;;;;;;68.53;36.70;;;15.90;99.90;;;14.65;89.41;98120.34;5070413;28;20063;-69
2021/06/06 07:10:46;;;;;;;55.40;32.65;;;15.60;99.90;;;14.64;89.27;98129.06;5038088;28;20044;-69
2021/06/06 07:13:13;;;;;;;53.22;32.83;;;15.70;99.90;;;14.58;89.40;98130.25;5070613;28;20124;-69
2021/06/06 07:15:41;;;;;;;59.75;34.63;;;15.80;99.90;;;14.52;89.73;98138.34;5071526;28;20045;-69
2021/06/06 07:18:13;;;;;;;53.70;32.10;;;15.60;99.90;;;14.59;89.98;98131.91;5068658;28;20040;-70
2021/06/06 07:20:41;;;;;;;50.13;31.07;;;15.60;99.90;;;14.66;89.82;98135.06;5070239;28;20185;-70
2021/06/06 07:23:12;;;;;;;62.35;36.97;;;15.80;99.90;;;14.59;89.80;98138.91;5069984;28;20048;-70
2021/06/06 07:25:42;;;;;;;54.60;34.75;;;15.60;99.90;;;14.53;89.81;98131.34;5053706;28;20040;-70
2021/06/06 07:28:15;;;;;;;65.85;38.53;;;15.60;99.90;;;14.36;90.33;98135.63;5037806;28;20052;-70
2021/06/06 07:30:48;;;;;;;64.93;37.63;;;15.40;99.90;;;14.32;90.82;98133.25;5050534;28;20045;-70
2021/06/06 07:33:19;;;;;;;56.58;35.95;;;15.30;99.90;;;14.41;89.95;98132.81;5064673;28;20037;-70
2021/06/06 07:35:46;;;;;;;68.85;35.28;;;15.40;99.90;;;14.43;89.42;98137.03;5071206;28;20048;-70
2021/06/06 07:38:13;;;;;;;51.35;31.52;;;15.40;99.90;;;14.48;89.92;98131.56;5053730;28;20045;-70
2021/06/06 07:40:44;;;;;;;47.90;31.30;;;15.50;99.90;;;14.60;89.51;98140.63;5070493;28;20130;-70
2021/06/06 07:43:13;;;;;;;52.58;32.10;;;15.60;99.90;;;14.72;88.46;98129.53;5056001;28;20053;-70
2021/06/06 07:45:41;;;;;;;46.97;31.17;;;15.80;99.90;;;15.15;87.11;98142.19;5050783;28;20053;-69
2021/06/06 07:48:09;;;;;;;43.75;26.27;;;16.20;99.90;;;15.53;86.73;98139.31;5065279;28;20078;-70
2021/06/06 07:50:42;;;;;;;53.20;31.95;;;16.60;99.90;;;15.32;85.65;98138.69;5072524;28;20041;-70
2021/06/06 07:53:11;;;;;;;;;;;16.70;99.90;;;15.37;85.28;98137.53;5066705;28;20408;-70
2021/06/06 07:55:38;;;;;;;43.20;27.63;;;16.90;99.90;;;15.51;85.08;98136.78;5069076;28;19935;-70
2021/06/06 07:58:06;;;;;;;39.03;25.50;;;16.90;99.90;;;15.76;84.91;98135.47;5069814;28;20052;-70
2021/06/06 08:00:38;;;;;;;34.80;23.88;;;17.10;99.90;;;16.04;83.94;98135.66;5070296;28;20040;-70
2021/06/06 08:03:06;;;;;;;36.15;24.90;;;17.50;99.90;;;16.09;81.14;98132.78;5063022;28;20085;-70
2021/06/06 08:05:35;;;;;;;33.78;22.23;;;17.60;99.90;;;16.05;82.12;98133.88;5058624;28;20067;-70
2021/06/06 08:08:05;;;;;;;31.38;21.85;;;17.60;99.90;;;16.10;82.39;98129.19;5058645;28;20037;-70
2021/06/06 08:10:35;;;;;;;30.88;21.40;;;17.50;99.90;;;15.92;81.98;98138.09;5069207;28;20420;-70
2021/06/06 08:13:04;;;;;;;29.35;20.77;;;17.50;99.90;;;15.84;82.98;98134.13;5068444;28;20044;-70
2021/06/06 08:15:32;;;;;;;28.83;19.30;;;17.30;99.90;;;15.72;82.94;98140.03;5057183;28;20442;-70
2021/06/06 08:18:05;;;;;;;33.75;21.67;;;17.20;99.90;;;15.59;84.02;98141.59;5059290;28;20123;-70
2021/06/06 08:20:50;;;;;;;27.30;18.38;;;17.00;99.90;;;15.83;83.07;98139.47;5066571;28;20562;-70
2021/06/06 08:23:19;;;;;;;30.33;21.45;;;17.00;99.90;;;15.82;83.13;98135.97;5064526;28;20036;-70
2021/06/06 08:25:48;;;;;;;25.60;18.15;;;17.00;99.90;;;16.01;82.67;98130.59;5048676;28;20411;-70
2021/06/06 08:28:18;;;;;;;25.00;15.88;;;17.00;99.90;;;16.10;82.63;98137.94;5057899;28;20139;-70
2021/06/06 08:31:12;;;;;;;28.50;20.88;;;17.30;99.90;;;16.62;80.72;98130.63;5067204;28;20048;-70
2021/06/06 08:34:00;;;;;;;24.55;18.38;;;17.60;99.90;;;16.52;80.30;98130.31;5068170;28;20511;-70
2021/06/06 08:36:44;;;;;;;27.92;19.40;;;17.70;99.90;;;16.37;80.08;98125.97;5060668;28;20120;-70
2021/06/06 08:39:22;;;;;;;21.98;15.90;;;17.90;99.90;;;16.68;80.80;98125.88;5057863;28;20086;-71
2021/06/06 08:42:23;;;;;;;22.20;15.40;;;18.20;99.90;;;16.57;79.09;98132.69;5067754;28;20404;-70
2021/06/06 08:45:13;;;;;;;21.77;14.85;;;18.40;99.90;;;16.58;79.81;98122.13;5083369;28;20117;-70
2021/06/06 08:47:41;;;;;;;24.70;17.48;;;18.30;99.90;;;16.26;80.32;98119.56;5050641;28;20047;-70
2021/06/06 08:50:15;;;;;;;24.58;17.50;;;17.90;99.90;;;16.21;81.44;98126.81;5051788;28;20094;-70
2021/06/06 08:53:15;;;;;;;25.60;17.23;;;17.90;99.90;;;16.40;79.67;98126.63;5059169;28;20040;-70
2021/06/06 08:56:07;;;;;;;18.77;13.93;;;17.80;99.90;;;16.53;78.99;98129.38;5060319;28;20052;-70
2021/06/06 08:58:43;;;;;;;24.45;17.75;;;18.10;99.90;;;16.35;79.66;98125.19;5066790;28;20048;-70
2021/06/06 09:01:39;;;;;;;18.70;13.90;;;18.00;99.90;;;16.64;79.00;98121.75;5046246;28;20059;-70
2021/06/06 09:04:27;;;;;;;21.45;15.00;;;18.10;99.90;;;16.66;77.78;98127.75;5066052;28;20409;-70
2021/06/06 09:07:07;;;;;;;19.40;13.55;;;18.30;99.90;;;16.72;78.42;98123.94;5046408;28;20045;-71
2021/06/06 09:09:45;;;;;;;19.17;14.02;;;18.40;99.90;;;16.56;77.82;98126.59;5069029;28;20076;-70
2021/06/06 09:12:20;;;;;;;20.05;13.98;;;18.00;99.90;;;16.62;78.30;98122.75;5048541;28;20068;-70
2021/06/06 09:14:56;;;;;;;20.25;13.57;;;18.10;99.90;;;16.69;76.98;98130.19;5049939;28;20040;-71
2021/06/06 09:17:41;;;;;;;17.63;12.55;;;18.20;99.90;;;16.90;75.81;98124.63;5060523;28;20496;-70
2021/06/06 09:20:40;;;;;;;16.50;11.48;;;18.30;99.90;;;17.07;76.59;98134.97;5042989;28;20045;-70
2021/06/06 09:23:19;;;;;;;15.45;10.48;;;18.50;99.90;;;17.13;76.27;98133.75;5053209;28;20041;-68
2021/06/06 09:26:24;;;;;;;17.98;12.25;;;18.80;99.90;;;16.93;75.17;98133.16;5034124;28;20446;-68
2021/06/06 09:29:16;;;;;;;16.60;11.15;;;18.80;99.90;;;16.88;75.74;98137.84;5047669;28;20055;-68
2021/06/06 09:31:43;;;;;;;18.65;12.50;;;18.60;99.90;;;17.02;75.59;98138.81;5044537;28;20101;-68
2021/06/06 09:34:22;;;;;;;17.63;12.15;;;18.60;99.90;;;16.94;75.65;98139.25;5043395;28;20389;-68
2021/06/06 09:37:10;;;;;;;18.08;11.82;;;18.50;99.90;;;17.17;75.55;98139.66;5037272;28;20495;-68
2021/06/06 09:39:45;;;;;;;16.63;11.90;;;18.70;99.90;;;17.29;74.68;98141.53;5058150;28;20082;-68
2021/06/06 09:42:30;;;;;;;17.15;12.80;;;19.00;99.90;;;16.91;74.72;98142.06;5061940;28;20407;-68
2021/06/06 09:45:30;;;;;;;17.58;13.00;;;18.50;99.90;;;17.18;74.88;98141.34;5064247;28;20037;-69
2021/06/06 09:48:16;;;;;;;15.45;11.45;;;18.60;99.90;;;17.32;74.26;98134.31;5047288;28;20132;-68
2021/06/06 09:51:24;;;;;;;19.48;12.85;;;18.70;99.90;;;17.34;73.79;98135.06;5067615;28;20041;-68
2021/06/06 09:53:56;;;;;;;15.48;10.73;;;18.70;99.90;;;17.43;74.69;98144.16;5056700;28;20496;-68
2021/06/06 09:56:28;;;;;;;16.85;11.48;;;19.00;99.90;;;17.51;73.69;98141.88;5049701;28;20285;-68
2021/06/06 09:59:15;;;;;;;15.80;11.30;;;19.20;99.90;;;17.88;72.68;98139.66;5061692;28;20047;-68
2021/06/06 10:02:02;;;;;;;17.15;11.27;;;19.40;99.90;;;18.02;71.93;98137.91;5064137;28;20049;-69
2021/06/06 10:04:34;;;;;;;13.95;11.10;;;19.50;99.90;;;17.93;71.75;98136.72;5057789;28;20067;-68
2021/06/06 10:07:40;;;;;;;17.67;12.20;;;19.80;99.90;;;18.28;69.94;98142.31;5050836;28;20083;-68
2021/06/06 10:10:31;;;;;;;15.82;11.25;;;20.00;99.90;;;18.17;70.51;98135.13;5050021;28;20049;-68
2021/06/06 10:13:04;;;;;;;17.38;10.45;;;20.10;99.90;;;18.43;70.39;98137.00;5042359;28;21135;-68
2021/06/06 10:15:45;;;;;;;16.75;11.20;;;20.10;99.90;;;18.50;69.81;98133.88;5060892;28;20044;-68
2021/06/06 10:18:33;;;;;;;14.20;10.75;;;20.30;99.90;;;18.50;70.61;98138.31;5060251;28;20504;-68
2021/06/06 10:21:11;;;;;;;13.98;9.60;;;20.50;99.90;;;18.83;69.61;98135.22;5035654;28;20045;-70
2021/06/06 10:23:47;;;;;;;11.20;8.90;;;20.60;99.90;;;18.76;68.25;98139.19;5067697;28;20097;-68
2021/06/06 10:26:48;;;;;;;11.25;8.95;;;20.50;99.90;;;18.67;67.43;98143.28;5072954;28;20094;-68
2021/06/06 10:29:53;;;;;;;11.27;8.60;;;20.30;99.90;;;18.56;69.82;98143.13;5071338;28;20516;-68
2021/06/06 10:32:27;;;;;;;12.75;9.10;;;20.40;99.90;;;18.44;69.67;98143.97;5070854;28;20102;-68
2021/06/06 10:35:08;;;;;;;13.10;10.32;;;20.30;99.90;;;18.46;70.44;98153.44;5055610;28;20488;-68
2021/06/06 10:37:48;;;;;;;13.23;9.73;;;20.20;99.90;;;18.92;68.95;98153.03;5052180;28;20075;-68
2021/06/06 10:40:51;;;;;;;12.25;9.77;;;20.30;99.90;;;19.11;67.67;98139.47;5037171;28;20121;-68